createdAt,value
2023-04-02T00:00:10.567Z,9.85
2023-04-02T00:03:09.767Z,9.78
2023-04-02T00:05:52.761Z,9.84
2023-04-02T00:08:21.370Z,9.78
2023-04-02T00:10:49.811Z,9.60
2023-04-02T00:13:16.221Z,9.48
2023-04-02T00:15:44.018Z,9.50
2023-04-02T00:18:15.492Z,9.70
2023-04-02T00:20:43.889Z,9.70
2023-04-02T00:23:12.370Z,9.61
2023-04-02T00:25:45.687Z,9.77
2023-04-02T00:28:13.089Z,9.73
2023-04-02T00:30:46.467Z,9.54
2023-04-02T00:33:16.231Z,9.54
2023-04-02T00:35:42.860Z,9.56
2023-04-02T00:38:17.811Z,9.49
2023-04-02T00:40:44.417Z,9.48
2023-04-02T00:43:16.666Z,9.43
2023-04-02T00:45:51.172Z,9.40
2023-04-02T00:48:44.278Z,9.46
2023-04-02T00:51:13.163Z,9.46
2023-04-02T00:53:42.264Z,9.44
2023-04-02T00:56:13.659Z,9.21
2023-04-02T00:58:40.520Z,9.05
2023-04-02T01:01:16.826Z,8.96
2023-04-02T01:03:44.328Z,9.05
2023-04-02T01:06:16.152Z,9.10
2023-04-02T01:09:00.973Z,9.02
2023-04-02T01:11:46.471Z,9.15
2023-04-02T01:14:16.261Z,9.23
2023-04-02T01:17:01.349Z,9.31
2023-04-02T01:19:46.862Z,9.28
2023-04-02T01:22:19.201Z,9.26
2023-04-02T01:24:46.148Z,9.37
2023-04-02T01:27:24.740Z,9.28
2023-04-02T01:29:55.649Z,9.35
2023-04-02T01:32:23.353Z,9.33
2023-04-02T01:34:50.652Z,9.25
2023-04-02T01:37:17.836Z,9.29
2023-04-02T01:40:04.920Z,9.27
2023-04-02T01:42:44.533Z,9.44
2023-04-02T01:45:15.604Z,9.44
2023-04-02T01:47:43.004Z,9.55
2023-04-02T01:50:19.279Z,9.43
2023-04-02T01:52:50.334Z,9.20
2023-04-02T01:55:18.983Z,9.11
2023-04-02T01:57:49.859Z,9.14
2023-04-02T02:00:17.131Z,9.25
2023-04-02T02:02:48.962Z,9.00
2023-04-02T02:05:17.630Z,9.00
2023-04-02T02:07:46.975Z,8.80
2023-04-02T02:10:17.791Z,8.90
2023-04-02T02:12:45.844Z,8.97
2023-04-02T02:15:20.043Z,8.83
2023-04-02T02:17:46.655Z,8.76
2023-04-02T02:20:13.580Z,8.57
2023-04-02T02:22:44.631Z,8.46
2023-04-02T02:25:14.296Z,8.30
2023-04-02T02:27:43.497Z,8.27
2023-04-02T02:30:29.691Z,8.22
2023-04-02T02:33:02.332Z,8.11
2023-04-02T02:35:31.167Z,8.12
2023-04-02T02:38:22.434Z,8.94
2023-04-02T02:40:52.731Z,8.27
2023-04-02T02:43:19.997Z,7.93
2023-04-02T02:45:47.235Z,8.02
2023-04-02T02:48:15.407Z,7.85
2023-04-02T02:50:42.889Z,7.68
2023-04-02T02:53:16.283Z,7.82
2023-04-02T02:55:42.809Z,7.72
2023-04-02T02:58:34.879Z,7.67
2023-04-02T03:01:12.160Z,7.79
2023-04-02T03:03:41.823Z,7.84
2023-04-02T03:06:10.959Z,7.84
2023-04-02T03:08:45.940Z,7.75
2023-04-02T03:11:23.114Z,7.68
2023-04-02T03:13:52.070Z,7.70
2023-04-02T03:16:21.438Z,7.62
2023-04-02T03:18:54.245Z,7.74
2023-04-02T03:21:25.733Z,7.68
2023-04-02T03:24:03.715Z,7.67
2023-04-02T03:26:56.602Z,7.56
2023-04-02T03:29:27.099Z,7.52
2023-04-02T03:31:56.730Z,7.59
2023-04-02T03:34:33.497Z,7.59
2023-04-02T03:37:11.195Z,7.73
2023-04-02T03:39:45.110Z,7.76
2023-04-02T03:42:18.782Z,7.47
2023-04-02T03:44:55.350Z,7.45
2023-04-02T03:47:48.511Z,7.50
2023-04-02T03:50:21.844Z,7.53
2023-04-02T03:52:49.328Z,7.21
2023-04-02T03:55:17.427Z,7.41
2023-04-02T03:58:03.884Z,7.36
2023-04-02T04:00:51.462Z,7.22
2023-04-02T04:03:20.429Z,7.19
2023-04-02T04:06:20.325Z,7.37
2023-04-02T04:08:54.663Z,7.29
2023-04-02T04:11:27.415Z,7.16
2023-04-02T04:13:54.779Z,7.20
2023-04-02T04:16:26.580Z,6.97
2023-04-02T04:19:03.570Z,7.17
2023-04-02T04:21:38.460Z,7.17
2023-04-02T04:24:20.228Z,7.37
2023-04-02T04:26:49.671Z,7.38
2023-04-02T04:29:38.070Z,7.47
2023-04-02T04:32:16.725Z,7.28
2023-04-02T04:34:53.507Z,7.32
2023-04-02T04:37:33.554Z,7.13
2023-04-02T04:40:14.122Z,7.34
2023-04-02T04:42:42.023Z,7.21
2023-04-02T04:45:16.825Z,7.24
2023-04-02T04:48:03.025Z,7.16
2023-04-02T04:50:53.613Z,7.34
2023-04-02T04:53:22.591Z,7.46
2023-04-02T04:55:59.658Z,7.46
2023-04-02T04:59:02.271Z,7.48
2023-04-02T05:01:58.994Z,7.49
2023-04-02T05:04:39.319Z,7.50
2023-04-02T05:07:12.738Z,7.43
2023-04-02T05:09:42.800Z,7.46
2023-04-02T05:12:16.149Z,7.59
2023-04-02T05:14:48.451Z,7.71
2023-04-02T05:17:48.797Z,7.83
2023-04-02T05:20:21.338Z,7.84
2023-04-02T05:23:15.330Z,7.83
2023-04-02T05:26:11.607Z,7.90
2023-04-02T05:28:50.779Z,7.87
2023-04-02T05:31:20.083Z,8.15
2023-04-02T05:33:48.311Z,7.97
2023-04-02T05:36:20.734Z,8.08
2023-04-02T05:38:51.884Z,7.97
2023-04-02T05:41:36.610Z,8.03
2023-04-02T05:44:25.746Z,8.24
2023-04-02T05:46:57.104Z,8.31
2023-04-02T05:49:45.274Z,8.37
2023-04-02T05:52:13.759Z,8.33
2023-04-02T05:54:47.704Z,8.47
2023-04-02T05:57:17.271Z,8.64
2023-04-02T05:59:48.569Z,8.71
2023-04-02T06:02:23.255Z,8.70
2023-04-02T06:04:53.354Z,8.74
2023-04-02T06:07:28.450Z,8.97
2023-04-02T06:10:00.727Z,9.02
2023-04-02T06:12:31.077Z,9.14
2023-04-02T06:14:59.279Z,9.02
2023-04-02T06:17:28.991Z,8.94
2023-04-02T06:19:58.079Z,9.29
2023-04-02T06:22:24.570Z,9.32
2023-04-02T06:24:59.160Z,9.14
2023-04-02T06:27:26.660Z,9.68
2023-04-02T06:29:55.671Z,9.65
2023-04-02T06:32:24.375Z,9.68
2023-04-02T06:34:51.298Z,9.77
2023-04-02T06:37:19.347Z,10.87
2023-04-02T06:39:47.474Z,10.56
2023-04-02T06:42:21.200Z,10.20
2023-04-02T06:45:23.725Z,10.04
2023-04-02T06:48:17.214Z,10.16
2023-04-02T06:50:45.362Z,10.18
2023-04-02T06:53:21.495Z,10.19
2023-04-02T06:55:58.755Z,10.33
2023-04-02T06:58:28.963Z,10.21
2023-04-02T07:00:55.870Z,10.42
2023-04-02T07:03:34.133Z,10.75
2023-04-02T07:06:13.552Z,11.00
2023-04-02T07:08:40.486Z,10.81
2023-04-02T07:11:07.100Z,11.15
2023-04-02T07:13:33.663Z,11.45
2023-04-02T07:16:00.408Z,11.54
2023-04-02T07:18:29.231Z,11.41
2023-04-02T07:20:57.357Z,11.34
2023-04-02T07:23:25.429Z,11.90
2023-04-02T07:25:53.352Z,11.49
2023-04-02T07:28:21.975Z,11.30
2023-04-02T07:30:49.311Z,11.65
2023-04-02T07:33:17.468Z,11.80
2023-04-02T07:35:44.633Z,11.67
2023-04-02T07:38:11.218Z,11.86
2023-04-02T07:40:37.991Z,11.94
2023-04-02T07:43:05.318Z,11.97
2023-04-02T07:45:31.932Z,12.25
2023-04-02T07:47:58.683Z,12.34
2023-04-02T07:50:25.150Z,12.46
2023-04-02T07:52:51.592Z,12.69
2023-04-02T07:55:18.128Z,12.93
2023-04-02T07:57:49.259Z,12.82
2023-04-02T08:00:16.334Z,12.48
2023-04-02T08:02:42.971Z,12.40
2023-04-02T08:05:10.433Z,12.99
2023-04-02T08:07:37.075Z,13.04
2023-04-02T08:10:03.996Z,12.62
2023-04-02T08:12:30.516Z,12.79
2023-04-02T08:14:56.962Z,12.69
2023-04-02T08:17:23.604Z,13.37
2023-04-02T08:19:55.136Z,12.81
2023-04-02T08:22:21.986Z,13.05
2023-04-02T08:24:48.580Z,12.58
2023-04-02T08:27:15.292Z,12.50
2023-04-02T08:29:41.880Z,13.15
2023-04-02T08:32:12.208Z,13.73
2023-04-02T08:34:38.673Z,14.00
2023-04-02T08:37:05.136Z,14.23
2023-04-02T08:39:33.136Z,14.14
2023-04-02T08:42:04.422Z,13.92
2023-04-02T08:44:49.668Z,14.06
2023-04-02T08:47:17.405Z,14.45
2023-04-02T08:49:50.138Z,14.06
2023-04-02T08:52:27.216Z,14.20
2023-04-02T08:54:56.120Z,13.98
2023-04-02T08:57:42.868Z,14.76
2023-04-02T09:00:15.780Z,14.74
2023-04-02T09:02:50.750Z,14.85
2023-04-02T09:05:20.661Z,15.56
2023-04-02T09:07:48.051Z,15.62
2023-04-02T09:10:16.586Z,15.52
2023-04-02T09:12:44.124Z,16.46
2023-04-02T09:15:10.703Z,16.27
2023-04-02T09:17:50.533Z,16.94
2023-04-02T09:20:22.599Z,16.43
2023-04-02T09:22:51.417Z,16.20
2023-04-02T09:25:20.381Z,15.67
2023-04-02T09:27:49.264Z,15.40
2023-04-02T09:30:38.337Z,14.77
2023-04-02T09:33:09.318Z,15.14
2023-04-02T09:35:37.820Z,15.96
2023-04-02T09:38:07.446Z,15.24
2023-04-02T09:40:42.885Z,15.53
2023-04-02T09:43:14.276Z,15.04
2023-04-02T09:45:41.464Z,14.94
2023-04-02T09:48:26.061Z,15.32
2023-04-02T09:51:08.044Z,16.71
2023-04-02T09:53:35.790Z,16.57
2023-04-02T09:56:09.521Z,16.76
2023-04-02T09:58:36.042Z,16.74
2023-04-02T10:01:02.847Z,16.51
2023-04-02T10:03:31.504Z,17.30
2023-04-02T10:06:08.882Z,17.87
2023-04-02T10:08:36.164Z,17.37
2023-04-02T10:11:04.057Z,16.94
2023-04-02T10:13:46.287Z,16.91
2023-04-02T10:16:16.789Z,16.91
2023-04-02T10:18:46.738Z,17.99
2023-04-02T10:21:15.860Z,17.86
2023-04-02T10:23:42.434Z,18.09
2023-04-02T10:26:16.953Z,17.41
2023-04-02T10:28:43.387Z,18.90
2023-04-02T10:31:29.670Z,17.38
2023-04-02T10:34:06.543Z,17.99
2023-04-02T10:36:33.162Z,18.67
2023-04-02T10:38:59.577Z,19.38
2023-04-02T10:41:32.856Z,20.61
2023-04-02T10:44:06.204Z,20.08
2023-04-02T10:46:48.807Z,20.99
2023-04-02T10:49:18.188Z,21.33
2023-04-02T10:51:48.603Z,21.08
2023-04-02T10:54:15.048Z,20.35
2023-04-02T10:56:50.559Z,19.66
2023-04-02T10:59:20.229Z,18.77
2023-04-02T11:01:48.360Z,19.32
2023-04-02T11:04:22.543Z,19.11
2023-04-02T11:06:58.091Z,18.85
2023-04-02T11:09:32.235Z,20.06
2023-04-02T11:12:00.811Z,19.68
2023-04-02T11:14:29.073Z,19.65
2023-04-02T11:16:58.493Z,19.63
2023-04-02T11:19:27.491Z,20.06
2023-04-02T11:22:03.183Z,20.71
2023-04-02T11:24:32.816Z,20.27
2023-04-02T11:27:11.674Z,18.64
2023-04-02T11:29:38.202Z,19.66
2023-04-02T11:32:27.652Z,19.92
2023-04-02T11:35:05.917Z,19.33
2023-04-02T11:37:33.870Z,19.40
2023-04-02T11:40:13.929Z,18.98
2023-04-02T11:42:41.632Z,19.08
2023-04-02T11:45:20.998Z,19.26
2023-04-02T11:48:00.561Z,19.11
2023-04-02T11:50:30.719Z,19.38
2023-04-02T11:53:13.222Z,19.12
2023-04-02T11:55:40.971Z,18.50
2023-04-02T11:58:22.925Z,19.70
2023-04-02T12:00:55.300Z,19.29
2023-04-02T12:03:34.801Z,18.91
2023-04-02T12:06:06.504Z,18.79
2023-04-02T12:08:58.110Z,18.68
2023-04-02T12:11:36.016Z,18.20
2023-04-02T12:14:07.140Z,17.19
2023-04-02T12:16:34.626Z,17.13
2023-04-02T12:19:01.275Z,17.54
2023-04-02T12:21:28.986Z,17.55
2023-04-02T12:23:57.189Z,17.82
2023-04-02T12:26:26.923Z,17.81
2023-04-02T12:28:53.388Z,19.19
2023-04-02T12:31:24.855Z,18.11
2023-04-02T12:33:51.770Z,18.81
2023-04-02T12:36:19.864Z,19.04
2023-04-02T12:38:47.803Z,19.21
2023-04-02T12:41:24.344Z,19.28
2023-04-02T12:43:58.419Z,19.51
2023-04-02T12:46:26.626Z,19.43
2023-04-02T12:48:54.318Z,19.15
2023-04-02T12:51:21.256Z,19.13
2023-04-02T12:53:52.141Z,18.80
2023-04-02T12:56:21.351Z,19.46
2023-04-02T12:58:58.229Z,19.90
2023-04-02T13:01:27.726Z,19.67
2023-04-02T13:04:00.386Z,19.60
2023-04-02T13:06:27.136Z,19.05
2023-04-02T13:08:54.446Z,18.52
2023-04-02T13:11:22.586Z,18.46
2023-04-02T13:13:50.343Z,18.66
2023-04-02T13:16:19.900Z,18.70
2023-04-02T13:18:47.652Z,18.50
2023-04-02T13:21:16.848Z,18.72
2023-04-02T13:23:43.939Z,18.51
2023-04-02T13:26:19.327Z,18.46
2023-04-02T13:29:15.001Z,18.19
2023-04-02T13:31:41.569Z,17.80
2023-04-02T13:34:08.057Z,17.49
2023-04-02T13:36:34.704Z,17.38
2023-04-02T13:39:01.135Z,17.31
2023-04-02T13:41:31.818Z,17.30
2023-04-02T13:44:00.450Z,17.39
2023-04-02T13:46:29.747Z,17.30
2023-04-02T13:48:56.937Z,17.57
2023-04-02T13:51:46.625Z,18.01
2023-04-02T13:54:22.068Z,18.78
2023-04-02T13:56:48.854Z,18.79
2023-04-02T13:59:16.168Z,19.23
2023-04-02T14:01:44.632Z,19.10
2023-04-02T14:04:13.748Z,18.81
2023-04-02T14:06:52.628Z,19.19
2023-04-02T14:09:24.161Z,19.28
2023-04-02T14:12:17.773Z,19.37
2023-04-02T14:15:02.330Z,19.70
2023-04-02T14:17:28.764Z,19.83
2023-04-02T14:20:14.295Z,20.44
2023-04-02T14:22:51.008Z,20.01
2023-04-02T14:25:17.493Z,19.57
2023-04-02T14:27:58.593Z,18.96
2023-04-02T14:30:31.414Z,19.22
2023-04-02T14:32:58.983Z,20.23
2023-04-02T14:35:32.291Z,19.73
2023-04-02T14:38:23.445Z,20.25
2023-04-02T14:40:52.853Z,19.74
2023-04-02T14:43:52.282Z,18.57
2023-04-02T14:46:18.869Z,19.53
2023-04-02T14:48:46.114Z,19.20
2023-04-02T14:51:17.348Z,19.59
2023-04-02T14:53:43.866Z,19.79
2023-04-02T14:56:11.548Z,18.76
2023-04-02T14:58:40.888Z,18.46
2023-04-02T15:01:13.952Z,16.88
2023-04-02T15:03:48.705Z,17.34
2023-04-02T15:06:18.483Z,17.76
2023-04-02T15:09:02.017Z,17.55
2023-04-02T15:11:37.379Z,17.27
2023-04-02T15:14:10.237Z,17.38
2023-04-02T15:16:36.791Z,17.23
2023-04-02T15:19:04.632Z,17.19
2023-04-02T15:21:55.621Z,16.98
2023-04-02T15:24:35.960Z,17.20
2023-04-02T15:27:25.355Z,17.02
2023-04-02T15:30:08.990Z,16.95
2023-04-02T15:32:37.006Z,17.02
2023-04-02T15:35:12.561Z,17.11
2023-04-02T15:37:57.955Z,16.83
2023-04-02T15:40:24.787Z,16.73
2023-04-02T15:43:11.562Z,16.37
2023-04-02T15:45:38.415Z,16.59
2023-04-02T15:48:26.279Z,16.46
2023-04-02T15:51:07.555Z,16.50
2023-04-02T15:53:37.041Z,16.29
2023-04-02T15:56:09.472Z,16.21
2023-04-02T15:58:39.011Z,16.19
2023-04-02T16:01:21.770Z,15.86
2023-04-02T16:04:01.282Z,15.95
2023-04-02T16:06:50.076Z,15.90
2023-04-02T16:09:42.954Z,15.79
2023-04-02T16:12:13.712Z,15.75
2023-04-02T16:14:41.142Z,15.66
2023-04-02T16:17:23.885Z,15.76
2023-04-02T16:19:53.340Z,15.58
2023-04-02T16:22:25.889Z,15.60
2023-04-02T16:25:13.456Z,15.61
2023-04-02T16:28:02.167Z,15.52
2023-04-02T16:30:31.424Z,15.44
2023-04-02T16:32:57.865Z,15.36
2023-04-02T16:37:59.644Z,15.20
2023-04-02T16:40:26.117Z,15.18
2023-04-02T16:42:58.722Z,15.09
2023-04-02T16:45:34.365Z,15.09
2023-04-02T16:48:03.916Z,14.93
2023-04-02T16:50:39.329Z,14.97
2023-04-02T16:53:05.789Z,14.84
2023-04-02T16:55:42.614Z,14.63
2023-04-02T16:58:27.763Z,14.68
2023-04-02T17:00:54.237Z,14.66
2023-04-02T17:03:39.138Z,14.60
2023-04-02T17:06:08.334Z,14.63
2023-04-02T17:08:41.788Z,14.37
2023-04-02T17:11:09.588Z,14.11
2023-04-02T17:13:41.201Z,14.15
2023-04-02T17:16:20.047Z,14.14
2023-04-02T17:18:47.597Z,14.08
2023-04-02T17:21:17.553Z,14.00
2023-04-02T17:23:56.192Z,13.87
2023-04-02T17:26:27.027Z,14.03
2023-04-02T17:28:54.748Z,14.00
2023-04-02T17:31:25.816Z,13.78
2023-04-02T17:33:52.346Z,13.80
2023-04-02T17:36:41.955Z,13.83
2023-04-02T17:39:14.861Z,13.96
2023-04-02T17:41:49.694Z,13.77
2023-04-02T17:44:37.861Z,13.69
2023-04-02T17:47:13.477Z,13.82
2023-04-02T17:49:48.975Z,13.58
2023-04-02T17:52:30.814Z,13.52
2023-04-02T17:55:16.051Z,13.45
2023-04-02T17:58:01.535Z,13.41
2023-04-02T18:00:41.315Z,13.29
2023-04-02T18:03:28.674Z,13.37
2023-04-02T18:06:19.632Z,13.34
2023-04-02T18:09:04.706Z,13.18
2023-04-02T18:11:37.581Z,13.12
2023-04-02T18:14:24.283Z,13.26
2023-04-02T18:17:10.986Z,13.23
2023-04-02T18:19:37.445Z,12.97
2023-04-02T18:22:19.175Z,12.86
2023-04-02T18:24:51.804Z,12.83
2023-04-02T18:27:28.001Z,12.87
2023-04-02T18:29:54.513Z,12.71
2023-04-02T18:32:24.050Z,12.84
2023-04-02T18:34:56.908Z,13.00
2023-04-02T18:37:39.455Z,12.71
2023-04-02T18:40:19.268Z,13.07
2023-04-02T18:42:48.959Z,12.62
2023-04-02T18:45:18.506Z,12.64
2023-04-02T18:47:51.323Z,12.58
2023-04-02T18:50:22.953Z,12.46
2023-04-02T18:52:50.339Z,12.52
2023-04-02T18:55:22.385Z,12.51
2023-04-02T18:57:51.409Z,12.58
2023-04-02T19:00:27.406Z,12.35
2023-04-02T19:02:59.939Z,12.28
2023-04-02T19:05:35.660Z,12.33
2023-04-02T19:08:08.401Z,12.12
2023-04-02T19:10:37.187Z,12.26
2023-04-02T19:13:07.991Z,12.26
2023-04-02T19:15:39.586Z,12.13
2023-04-02T19:18:30.404Z,12.29
2023-04-02T19:21:00.320Z,12.23
2023-04-02T19:23:38.994Z,12.17
2023-04-02T19:26:26.821Z,12.13
2023-04-02T19:29:07.588Z,12.07
2023-04-02T19:31:34.146Z,11.95
2023-04-02T19:34:03.455Z,12.11
2023-04-02T19:36:48.922Z,12.03
2023-04-02T19:39:41.072Z,11.93
2023-04-02T19:42:10.858Z,11.88
2023-04-02T19:44:41.270Z,11.80
2023-04-02T19:47:08.330Z,11.76
2023-04-02T19:49:34.996Z,11.70
2023-04-02T19:52:01.521Z,11.88
2023-04-02T19:54:28.043Z,11.64
2023-04-02T19:56:54.584Z,11.63
2023-04-02T19:59:21.317Z,11.53
2023-04-02T20:01:47.765Z,11.65
2023-04-02T20:04:14.652Z,11.66
2023-04-02T20:06:41.413Z,11.54
2023-04-02T20:09:08.742Z,11.38
2023-04-02T20:11:36.516Z,11.47
2023-04-02T20:14:03.151Z,11.39
2023-04-02T20:16:29.846Z,11.27
2023-04-02T20:18:56.819Z,11.08
2023-04-02T20:21:23.340Z,11.06
2023-04-02T20:23:52.760Z,11.18
2023-04-02T20:26:19.189Z,11.20
2023-04-02T20:28:45.837Z,11.13
2023-04-02T20:31:13.991Z,11.10
2023-04-02T20:33:41.063Z,11.09
2023-04-02T20:36:08.877Z,10.93
2023-04-02T20:38:35.963Z,11.09
2023-04-02T20:41:03.345Z,11.14
2023-04-02T20:43:30.306Z,11.03
2023-04-02T20:45:57.973Z,11.02
2023-04-02T20:48:25.872Z,10.95
2023-04-02T20:50:52.385Z,11.05
2023-04-02T20:53:19.133Z,10.81
2023-04-02T20:55:48.625Z,10.52
2023-04-02T20:58:16.182Z,11.00
2023-04-02T21:00:43.519Z,10.26
2023-04-02T21:03:10.316Z,9.71
2023-04-02T21:05:44.885Z,9.36
2023-04-02T21:08:12.065Z,9.12
2023-04-02T21:10:38.840Z,9.09
2023-04-02T21:13:05.464Z,9.05
2023-04-02T21:15:32.394Z,9.14
2023-04-02T21:17:58.863Z,8.87
2023-04-02T21:20:26.597Z,8.79
2023-04-02T21:22:53.276Z,9.04
2023-04-02T21:25:20.188Z,9.03
2023-04-02T21:27:46.672Z,8.79
2023-04-02T21:30:13.240Z,9.74
2023-04-02T21:32:39.730Z,9.46
2023-04-02T21:35:07.611Z,8.73
2023-04-02T21:37:34.155Z,8.56
2023-04-02T21:40:00.812Z,8.48
2023-04-02T21:42:27.902Z,8.70
2023-04-02T21:44:55.919Z,8.92
2023-04-02T21:47:23.492Z,8.99
2023-04-02T21:49:50.093Z,8.98
2023-04-02T21:52:16.567Z,8.94
2023-04-02T21:54:43.042Z,8.98
2023-04-02T21:57:09.485Z,9.03
2023-04-02T21:59:36.086Z,9.13
2023-04-02T22:02:02.629Z,9.03
2023-04-02T22:04:30.681Z,8.93
2023-04-02T22:06:57.349Z,8.92
2023-04-02T22:09:25.217Z,8.94
2023-04-02T22:11:54.362Z,8.72
2023-04-02T22:14:21.186Z,8.71
2023-04-02T22:16:47.850Z,8.75
2023-04-02T22:19:15.282Z,8.69
2023-04-02T22:21:41.916Z,8.66
2023-04-02T22:24:11.014Z,8.61
2023-04-02T22:26:37.921Z,8.67
2023-04-02T22:29:04.942Z,8.48
2023-04-02T22:31:33.456Z,8.44
2023-04-02T22:34:01.151Z,8.50
2023-04-02T22:36:28.556Z,8.59
2023-04-02T22:38:55.283Z,8.61
2023-04-02T22:41:23.167Z,8.52
2023-04-02T22:43:49.730Z,8.49
2023-04-02T22:46:17.383Z,8.50
2023-04-02T22:48:44.236Z,8.62
2023-04-02T22:51:11.865Z,8.17
2023-04-02T22:53:38.797Z,8.14
2023-04-02T22:56:09.725Z,8.02
2023-04-02T22:58:36.540Z,8.03
2023-04-02T23:01:07.964Z,8.09
2023-04-02T23:03:34.824Z,8.09
2023-04-02T23:06:02.684Z,8.02
2023-04-02T23:08:29.235Z,7.96
2023-04-02T23:11:03.963Z,8.05
2023-04-02T23:13:30.751Z,8.14
2023-04-02T23:15:57.422Z,7.78
2023-04-02T23:18:24.010Z,7.70
2023-04-02T23:20:50.669Z,7.76
2023-04-02T23:23:17.099Z,7.74
2023-04-02T23:25:43.604Z,7.70
2023-04-02T23:28:12.107Z,7.82
2023-04-02T23:30:38.713Z,7.57
2023-04-02T23:33:05.514Z,7.59
2023-04-02T23:35:32.130Z,7.71
2023-04-02T23:37:58.633Z,7.60
2023-04-02T23:40:25.134Z,7.38
2023-04-02T23:42:51.579Z,7.41
2023-04-02T23:45:18.117Z,7.54
2023-04-02T23:47:44.791Z,7.53
2023-04-02T23:50:11.385Z,7.36
2023-04-02T23:52:37.845Z,7.20
2023-04-02T23:55:04.470Z,7.40
2023-04-02T23:57:30.953Z,7.39
2023-04-02T23:59:57.413Z,7.35
